Relevés horaires Eggishorn (Suisse)


Relevés horaires à Eggishorn - Samedi 03 Août 2019
Heure UTC1 Température [°C] Vent [km/h] Hum. [%] Pres.4 [hPa] Visi. [Km] Nébu. [octa] Préc.5 [mm] Cond.
2m. Res. Ros. Dir.2 Vit. Moy. Raf.3
23:00 4.6 1.3 0.1 O 14.8 -- 20.4 73 700(0.0/3h) -- -- -- --
22:00 4.8 1.5 0.6 O 14.8 -- 22.2 74 700(0.3/3h) -- -- -- --
21:00 5.4 3.3 1.3 OSO 9.3 -- 29.6 75 700(0.3/3h) -- -- -- --
20:00 6.1 3.8 0.5 OSO 11.1 -- 24.1 67 700(0.2/3h) -- -- -- --
19:00 7.2 5.1 -1.4 NNO 11.1 -- 29.6 54 700(0.1/3h) -- -- -- --
18:00 7.2 5.9 -1.7 NO 7.4 -- 31.5 53 700(-0.3/3h) -- -- -- --
17:00 9.2 7.5 -1.3 NNO 11.1 -- 25.9 48 700(-0.2/3h) -- -- -- --
16:00 8.0 6.4 -- NNO 9.3 -- 27.8 -- 700(-0.1/3h) -- -- -- --
15:00 8.6 7.1 0.4 NNO 9.3 -- 31.5 56 700(0.0/3h) -- -- -- --
14:00 8.5 7.4 0.1 NO 7.4 -- 20.4 55 700(0.3/3h) -- -- -- --
13:00 8.1 6.5 0.5 NE 9.3 -- 31.5 59 700(0.6/3h) -- -- -- --
12:00 7.2 5.9 1.8 NO 7.4 -- 22.2 68 700(0.8/3h) -- -- -- --
11:00 5.0 5.0 3.2 S 3.7 -- 13.0 88 700(0.7/3h) -- -- -- --
10:00 4.5 3.3 2.1 S 5.6 -- 16.7 84 700(0.7/3h) -- -- -- --
09:00 5.9 5.9 2.6 ENE 3.7 -- 16.7 79 700(0.7/3h) -- -- -- --
08:00 4.8 3.6 2.9 ESE 5.6 -- 14.8 87 700(0.7/3h) -- -- -- --
07:00 4.5 3.3 1.6 SE 5.6 -- 16.7 81 700(0.5/3h) -- -- -- --
06:00 2.7 0.6 -1.9 OSO 7.4 -- 50.0 72 700(0.2/3h) -- -- -- --
05:00 2.9 0.3 -1.8 OSO 9.3 -- 27.8 71 700(0.1/3h) -- -- -- --
04:00 2.6 -0 -1.7 O 9.3 -- 20.4 73 700(-0.5/3h) -- -- -- --
03:00 2.6 -0.5 -2.1 ONO 11.1 -- 50.0 71 700(-0.6/3h) -- -- -- --
02:00 2.6 0.5 -3.4 NO 7.4 -- 50.0 65 700(-0.4/3h) -- -- -- --
01:00 2.6 -3.4 -3.1 NNO 33.3 -- 50.0 66 700(-0.3/3h) -- -- -- --
00:00 2.8 -3 -2.6 NNO 31.5 -- 59.3 68 700(-0.4/3h) -- -- -- --

1 Coordinated Universal Time. Actuellement il est 16:00 locale et 14:00 UTC.

2 Le vent souffle depuis la direction indiquée vers la direction oposée.

3 Les rafales max. sont disponible 40 min après l'heure du relevé.

4 Pour les stations d'altitude (plus de 600m) le géopotentiel du niveau le plus proche de la pression obligatoire est indiqué.

5 Les stations disposant d'un diffuseur peuvent indiquer "trace". Cela signifie que des précipitations ont touchés le sol mais que la quantité est inférieure à 0.1 mm.

Copyright

Les données affichées sur cette page sont la propriété exclusive de Météo Suisse.

Récapitulatif de la journée
Température [°C] Vent [km/h] Ensoleillement4 [h] Precipitations totale5 [mm] Pression [Hpa]
Min1 Max.2 Moy.3 Max. Min Max.
1.9 9.5 0 59.3 10 h 36 min 0 700.0 700.0

1 Température minimale relevée entre 18:00 UTC la veille et 18:00 UTC le jour donné.

2 Température maximale relevée entre 06:00 UTC le jour donné et 06:00 UTC le lendemain.

3 Vent moyen de la journée basé sur les relevés horaires.

4 Ensoleillement en heures relevé entre 06:00 UTC la veille et 06:00 UTC le jour donné.

5 Précipitations totales tombées entre 06:00 UTC la jour donné et 06:00 UTC le lendemain.

Graphiques horaires